createdAt,value
2023-04-27T00:00:13.663Z,8.79
2023-04-27T00:02:42.373Z,8.33
2023-04-27T00:05:12.106Z,8.44
2023-04-27T00:07:40.544Z,8.01
2023-04-27T00:10:10.218Z,7.89
2023-04-27T00:12:38.536Z,7.70
2023-04-27T00:15:07.773Z,7.35
2023-04-27T00:17:37.693Z,7.10
2023-04-27T00:20:08.357Z,6.97
2023-04-27T00:22:36.749Z,6.99
2023-04-27T00:25:05.293Z,7.04
2023-04-27T00:27:33.658Z,7.20
2023-04-27T00:30:01.990Z,7.08
2023-04-27T00:32:30.313Z,7.39
2023-04-27T00:34:59.983Z,6.99
2023-04-27T00:37:28.406Z,7.06
2023-04-27T00:39:56.752Z,6.91
2023-04-27T00:42:25.210Z,7.09
2023-04-27T00:44:53.540Z,7.42
2023-04-27T00:47:21.989Z,7.22
2023-04-27T00:49:50.710Z,6.94
2023-04-27T00:52:20.617Z,7.20
2023-04-27T00:54:52.026Z,7.03
2023-04-27T00:57:20.662Z,6.89
2023-04-27T00:59:49.181Z,7.09
2023-04-27T01:02:17.770Z,6.93
2023-04-27T01:04:46.180Z,7.02
2023-04-27T01:07:14.514Z,6.98
2023-04-27T01:09:44.237Z,6.98
2023-04-27T01:12:12.522Z,6.82
2023-04-27T01:14:40.770Z,6.78
2023-04-27T01:17:09.258Z,7.23
2023-04-27T01:19:38.371Z,6.87
2023-04-27T01:22:07.221Z,6.88
2023-04-27T01:24:36.869Z,6.88
2023-04-27T01:27:05.475Z,7.28
2023-04-27T01:29:33.827Z,7.14
2023-04-27T01:32:02.119Z,7.12
2023-04-27T01:34:30.426Z,7.28
2023-04-27T01:36:58.646Z,7.34
2023-04-27T01:39:27.405Z,7.32
2023-04-27T01:41:58.472Z,7.44
2023-04-27T01:44:27.025Z,7.68
2023-04-27T01:46:55.282Z,7.56
2023-04-27T01:49:23.539Z,7.58
2023-04-27T01:51:51.821Z,7.71
2023-04-27T01:54:20.108Z,7.89
2023-04-27T01:56:48.421Z,7.93
2023-04-27T01:59:18.036Z,7.63
2023-04-27T02:01:46.291Z,7.49
2023-04-27T02:04:15.248Z,7.37
2023-04-27T02:06:43.779Z,7.18
2023-04-27T02:09:12.292Z,7.30
2023-04-27T02:11:40.867Z,7.14
2023-04-27T02:14:09.214Z,7.22
2023-04-27T02:16:39.019Z,7.13
2023-04-27T02:19:07.491Z,7.33
2023-04-27T02:21:36.429Z,7.14
2023-04-27T02:24:05.382Z,6.70
2023-04-27T02:26:33.663Z,7.39
2023-04-27T02:29:03.094Z,7.42
2023-04-27T02:31:32.056Z,7.48
2023-04-27T02:34:01.807Z,7.48
2023-04-27T02:36:30.106Z,7.59
2023-04-27T02:38:58.462Z,7.61
2023-04-27T02:41:28.239Z,7.98
2023-04-27T02:43:56.462Z,8.13
2023-04-27T02:46:25.169Z,8.45
2023-04-27T02:48:53.427Z,8.40
2023-04-27T02:51:23.119Z,8.35
2023-04-27T02:53:51.472Z,8.32
2023-04-27T02:56:19.695Z,8.09
2023-04-27T02:58:48.113Z,8.09
2023-04-27T03:01:17.504Z,8.18
2023-04-27T03:03:49.052Z,8.19
2023-04-27T03:06:17.830Z,8.25
2023-04-27T03:08:47.718Z,8.22
2023-04-27T03:11:16.237Z,8.00
2023-04-27T03:13:44.575Z,8.08
2023-04-27T03:16:13.212Z,8.09
2023-04-27T03:18:42.022Z,8.10
2023-04-27T03:21:11.301Z,8.12
2023-04-27T03:23:40.306Z,8.15
2023-04-27T03:26:11.006Z,7.95
2023-04-27T03:28:39.587Z,7.92
2023-04-27T03:31:08.288Z,7.91
2023-04-27T03:33:36.802Z,7.95
2023-04-27T03:36:06.789Z,7.89
2023-04-27T03:38:36.436Z,8.08
2023-04-27T03:41:04.657Z,7.63
2023-04-27T03:43:34.495Z,8.22
2023-04-27T03:46:02.945Z,8.26
2023-04-27T03:48:31.283Z,8.25
2023-04-27T03:50:59.581Z,8.17
2023-04-27T03:53:27.788Z,7.83
2023-04-27T03:55:56.196Z,8.00
2023-04-27T03:58:24.475Z,8.19
2023-04-27T04:00:54.784Z,8.36
2023-04-27T04:03:23.228Z,8.41
2023-04-27T04:05:51.757Z,8.41
2023-04-27T04:08:20.034Z,8.53
2023-04-27T04:10:48.303Z,8.53
2023-04-27T04:13:16.653Z,8.55
2023-04-27T04:15:44.982Z,8.48
2023-04-27T04:18:14.653Z,8.62
2023-04-27T04:20:44.008Z,8.58
2023-04-27T04:23:12.317Z,8.57
2023-04-27T04:25:41.853Z,7.92
2023-04-27T04:28:10.227Z,8.21
2023-04-27T04:30:39.752Z,8.18
2023-04-27T04:33:08.838Z,7.76
2023-04-27T04:35:41.620Z,7.69
2023-04-27T04:38:10.234Z,7.98
2023-04-27T04:40:40.269Z,8.06
2023-04-27T04:43:08.604Z,8.16
2023-04-27T04:45:37.210Z,8.11
2023-04-27T04:48:05.812Z,8.29
2023-04-27T04:50:34.281Z,8.56
2023-04-27T04:53:03.918Z,8.37
2023-04-27T04:55:32.171Z,8.76
2023-04-27T04:58:00.463Z,9.06
2023-04-27T05:00:28.907Z,9.29
2023-04-27T05:02:57.383Z,9.21
2023-04-27T05:05:26.150Z,9.59
2023-04-27T05:07:54.501Z,9.59
2023-04-27T05:10:24.180Z,9.54
2023-04-27T05:15:39.324Z,9.65
2023-04-27T05:18:07.724Z,10.06
2023-04-27T05:20:36.653Z,9.86
2023-04-27T05:23:05.147Z,9.60
2023-04-27T05:25:41.527Z,9.73
2023-04-27T05:28:10.141Z,10.04
2023-04-27T05:30:38.514Z,10.19
2023-04-27T05:33:07.081Z,10.60
2023-04-27T05:35:35.791Z,10.59
2023-04-27T05:38:04.467Z,10.15
2023-04-27T05:40:34.125Z,10.94
2023-04-27T05:43:05.792Z,11.22
2023-04-27T05:45:34.532Z,11.56
2023-04-27T05:48:02.830Z,11.33
2023-04-27T05:50:31.244Z,11.61
2023-04-27T05:52:59.452Z,12.04
2023-04-27T05:55:27.772Z,12.35
2023-04-27T05:58:07.096Z,11.15
2023-04-27T06:00:36.667Z,11.43
2023-04-27T06:03:05.273Z,11.27
2023-04-27T06:05:34.474Z,10.76
2023-04-27T06:08:02.942Z,11.11
2023-04-27T06:10:31.259Z,12.19
2023-04-27T06:13:00.999Z,11.93
2023-04-27T06:15:29.490Z,12.02
2023-04-27T06:17:57.969Z,12.38
2023-04-27T06:20:26.511Z,12.87
2023-04-27T06:22:54.831Z,13.25
2023-04-27T06:25:27.053Z,14.12
2023-04-27T06:27:55.775Z,15.17
2023-04-27T06:30:25.801Z,15.36
2023-04-27T06:32:54.058Z,15.45
2023-04-27T06:35:22.378Z,16.39
2023-04-27T06:37:51.427Z,15.99
2023-04-27T06:40:19.814Z,15.76
2023-04-27T06:42:48.102Z,15.82
2023-04-27T06:45:16.386Z,15.88
2023-04-27T06:47:46.093Z,15.87
2023-04-27T06:50:14.388Z,15.61
2023-04-27T06:52:42.698Z,16.98
2023-04-27T06:55:11.578Z,17.46
2023-04-27T06:57:39.919Z,17.19
2023-04-27T07:00:09.429Z,17.96
2023-04-27T07:02:37.782Z,17.13
2023-04-27T07:05:07.964Z,16.97
2023-04-27T07:07:36.290Z,18.11
2023-04-27T07:10:05.251Z,17.52
2023-04-27T07:12:33.515Z,17.86
2023-04-27T07:15:03.794Z,17.89
2023-04-27T07:17:32.121Z,17.51
2023-04-27T07:20:00.666Z,17.74
2023-04-27T07:22:30.325Z,17.44
2023-04-27T07:24:58.530Z,18.02
2023-04-27T07:27:27.557Z,18.34
2023-04-27T07:29:56.810Z,18.39
2023-04-27T07:32:25.614Z,18.77
2023-04-27T07:34:56.229Z,19.24
2023-04-27T07:37:24.490Z,19.62
2023-04-27T07:39:54.583Z,19.99
2023-04-27T07:42:23.689Z,20.49
2023-04-27T07:44:52.615Z,20.52
2023-04-27T07:47:22.048Z,20.35
2023-04-27T07:49:50.423Z,20.32
2023-04-27T07:52:18.661Z,19.43
2023-04-27T07:54:47.078Z,19.92
2023-04-27T07:57:16.822Z,20.58
2023-04-27T07:59:45.991Z,21.14
2023-04-27T08:02:19.578Z,21.27
2023-04-27T08:04:49.549Z,22.29
2023-04-27T08:07:19.221Z,22.30
2023-04-27T08:09:47.949Z,21.75
2023-04-27T08:12:17.711Z,21.97
2023-04-27T08:14:45.910Z,21.62
2023-04-27T08:17:14.177Z,21.95
2023-04-27T08:19:42.673Z,21.19
2023-04-27T08:22:11.076Z,21.36
2023-04-27T08:24:39.363Z,20.31
2023-04-27T08:27:08.231Z,21.33
2023-04-27T08:29:37.976Z,20.87
2023-04-27T08:32:07.092Z,21.32
2023-04-27T08:34:35.323Z,21.60
2023-04-27T08:37:04.605Z,22.23
2023-04-27T08:39:33.038Z,22.90
2023-04-27T08:42:01.438Z,23.37
2023-04-27T08:44:30.812Z,24.25
2023-04-27T08:47:00.659Z,24.62
2023-04-27T08:49:28.952Z,23.22
2023-04-27T08:51:57.197Z,20.72
2023-04-27T08:54:25.783Z,22.17
2023-04-27T08:56:54.090Z,21.74
2023-04-27T08:59:22.322Z,21.70
2023-04-27T09:01:51.316Z,22.94
2023-04-27T09:04:21.237Z,22.82
2023-04-27T09:06:50.294Z,20.47
2023-04-27T09:09:25.453Z,20.94
2023-04-27T09:11:53.845Z,19.31
2023-04-27T09:14:23.886Z,20.42
2023-04-27T09:16:59.563Z,20.79
2023-04-27T09:19:30.711Z,21.09
2023-04-27T09:22:09.567Z,19.68
2023-04-27T09:24:38.207Z,19.34
2023-04-27T09:27:09.109Z,19.60
2023-04-27T09:29:38.682Z,20.40
2023-04-27T09:32:17.892Z,20.36
2023-04-27T09:34:48.220Z,19.43
2023-04-27T09:37:17.743Z,19.57
2023-04-27T09:39:46.877Z,19.85
2023-04-27T09:42:16.260Z,20.40
2023-04-27T09:44:44.627Z,20.63
2023-04-27T09:47:15.064Z,19.51
2023-04-27T09:49:43.390Z,19.62
2023-04-27T09:52:13.274Z,20.30
2023-04-27T09:54:42.416Z,22.36
2023-04-27T09:57:25.342Z,22.26
2023-04-27T10:00:11.133Z,22.54
2023-04-27T10:02:53.222Z,23.84
2023-04-27T10:05:39.614Z,23.03
2023-04-27T10:08:11.723Z,21.81
2023-04-27T10:10:49.495Z,22.13
2023-04-27T10:13:26.383Z,23.76
2023-04-27T10:15:55.668Z,23.17
2023-04-27T10:18:28.844Z,24.13
2023-04-27T10:20:57.200Z,24.68
2023-04-27T10:23:27.957Z,23.70
2023-04-27T10:25:57.404Z,24.06
2023-04-27T10:28:25.624Z,23.29
2023-04-27T10:30:53.898Z,22.69
2023-04-27T10:33:25.356Z,20.75
2023-04-27T10:35:58.706Z,21.52
2023-04-27T10:38:31.686Z,20.99
2023-04-27T10:41:02.399Z,21.15
2023-04-27T10:43:31.964Z,21.66
2023-04-27T10:46:09.660Z,21.36
2023-04-27T10:48:38.573Z,22.14
2023-04-27T10:51:07.077Z,22.89
2023-04-27T10:53:37.499Z,23.87
2023-04-27T10:56:07.288Z,23.59
2023-04-27T10:58:48.339Z,24.19
2023-04-27T11:01:25.962Z,23.93
2023-04-27T11:03:57.325Z,23.91
2023-04-27T11:06:28.296Z,23.92
2023-04-27T11:08:58.440Z,24.58
2023-04-27T11:11:26.863Z,24.34
2023-04-27T11:13:56.636Z,25.60
2023-04-27T11:16:25.403Z,24.43
2023-04-27T11:18:53.762Z,25.19
2023-04-27T11:21:23.744Z,25.74
2023-04-27T11:23:52.119Z,25.56
2023-04-27T11:26:23.921Z,25.34
2023-04-27T11:29:00.198Z,25.93
2023-04-27T11:31:29.229Z,25.78
2023-04-27T11:33:57.551Z,24.91
2023-04-27T11:36:27.284Z,23.56
2023-04-27T11:39:00.166Z,24.28
2023-04-27T11:41:36.493Z,25.11
2023-04-27T11:44:08.674Z,24.92
2023-04-27T11:46:38.298Z,26.28
2023-04-27T11:49:08.972Z,27.14
2023-04-27T11:51:37.863Z,27.35
2023-04-27T11:54:07.702Z,28.12
2023-04-27T11:56:38.660Z,27.20
2023-04-27T11:59:06.966Z,25.34
2023-04-27T12:01:38.266Z,26.12
2023-04-27T12:04:06.978Z,25.78
2023-04-27T12:06:35.415Z,26.79
2023-04-27T12:09:04.450Z,26.71
2023-04-27T12:11:32.902Z,26.53
2023-04-27T12:14:03.514Z,25.48
2023-04-27T12:16:32.068Z,23.60
2023-04-27T12:19:00.320Z,24.56
2023-04-27T12:21:28.629Z,25.64
2023-04-27T12:23:56.962Z,24.66
2023-04-27T12:26:25.750Z,25.00
2023-04-27T12:28:54.105Z,24.43
2023-04-27T12:31:27.734Z,25.31
2023-04-27T12:33:56.292Z,25.55
2023-04-27T12:36:24.679Z,26.20
2023-04-27T12:38:53.542Z,24.83
2023-04-27T12:41:23.404Z,23.52
2023-04-27T12:43:51.731Z,22.28
2023-04-27T12:46:20.125Z,23.25
2023-04-27T12:48:50.009Z,22.65
2023-04-27T12:51:18.477Z,23.48
2023-04-27T12:53:46.749Z,23.60
2023-04-27T12:56:15.019Z,23.93
2023-04-27T12:58:43.377Z,22.67
2023-04-27T13:01:15.074Z,23.23
2023-04-27T13:03:43.725Z,22.47
2023-04-27T13:06:13.773Z,22.50
2023-04-27T13:08:43.400Z,23.72
2023-04-27T13:11:11.766Z,23.97
2023-04-27T13:13:40.038Z,24.08
2023-04-27T13:16:08.616Z,23.51
2023-04-27T13:18:37.213Z,23.81
2023-04-27T13:21:07.481Z,23.32
2023-04-27T13:23:37.211Z,22.65
2023-04-27T13:26:07.146Z,20.68
2023-04-27T13:28:35.531Z,21.43
2023-04-27T13:31:04.285Z,20.90
2023-04-27T13:33:34.238Z,20.72
2023-04-27T13:36:04.004Z,20.10
2023-04-27T13:38:32.387Z,19.89
2023-04-27T13:41:02.245Z,19.49
2023-04-27T13:43:31.283Z,19.22
2023-04-27T13:46:01.071Z,19.17
2023-04-27T13:48:30.251Z,19.29
2023-04-27T13:50:59.216Z,19.48
2023-04-27T13:53:28.093Z,19.32
2023-04-27T13:55:57.637Z,17.90
2023-04-27T13:58:28.886Z,17.50
2023-04-27T14:00:57.492Z,16.71
2023-04-27T14:03:27.075Z,17.08
2023-04-27T14:05:55.487Z,17.04
2023-04-27T14:08:24.060Z,17.20
2023-04-27T14:10:52.339Z,17.39
2023-04-27T14:13:20.940Z,16.95
2023-04-27T14:15:50.790Z,17.09
2023-04-27T14:18:19.180Z,17.10
2023-04-27T14:20:47.489Z,16.32
2023-04-27T14:23:15.999Z,16.20
2023-04-27T14:25:44.278Z,16.08
2023-04-27T14:28:14.905Z,16.32
2023-04-27T14:30:43.368Z,15.17
2023-04-27T14:33:13.137Z,15.50
2023-04-27T14:35:41.524Z,15.49
2023-04-27T14:38:10.012Z,15.66
2023-04-27T14:40:38.662Z,16.05
2023-04-27T14:43:07.062Z,15.48
2023-04-27T14:45:47.779Z,15.38
2023-04-27T14:48:21.210Z,15.50
2023-04-27T14:50:49.624Z,15.97
2023-04-27T14:53:17.941Z,15.92
2023-04-27T14:55:46.929Z,15.65
2023-04-27T14:58:15.589Z,14.77
2023-04-27T15:00:43.918Z,15.37
2023-04-27T15:03:12.492Z,15.93
2023-04-27T15:05:42.442Z,16.11
2023-04-27T15:08:10.833Z,15.26
2023-04-27T15:10:39.309Z,15.53
2023-04-27T15:13:07.699Z,15.44
2023-04-27T15:15:36.071Z,15.96
2023-04-27T15:18:04.610Z,15.48
2023-04-27T15:20:33.027Z,15.64
2023-04-27T15:23:02.745Z,15.77
2023-04-27T15:25:31.352Z,14.99
2023-04-27T15:28:01.336Z,15.81
2023-04-27T15:30:29.584Z,15.87
2023-04-27T15:32:57.918Z,16.24
2023-04-27T15:35:27.590Z,15.94
2023-04-27T15:37:55.962Z,16.43
2023-04-27T15:40:26.013Z,15.71
2023-04-27T15:42:54.434Z,15.24
2023-04-27T15:45:22.884Z,15.58
2023-04-27T15:47:51.369Z,16.25
2023-04-27T15:50:19.763Z,15.36
2023-04-27T15:52:48.228Z,15.63
2023-04-27T15:55:16.738Z,16.20
2023-04-27T15:57:46.430Z,16.12
2023-04-27T16:00:17.020Z,15.97
2023-04-27T16:02:45.407Z,16.40
2023-04-27T16:05:13.763Z,15.76
2023-04-27T16:07:46.189Z,15.78
2023-04-27T16:10:14.822Z,14.98
2023-04-27T16:12:43.091Z,15.14
2023-04-27T16:15:13.296Z,15.34
2023-04-27T16:17:41.860Z,15.37
2023-04-27T16:20:10.878Z,15.30
2023-04-27T16:22:39.454Z,15.21
2023-04-27T16:25:10.894Z,15.32
2023-04-27T16:27:39.443Z,15.30
2023-04-27T16:30:09.058Z,15.06
2023-04-27T16:32:39.156Z,14.63
2023-04-27T16:35:08.533Z,14.69
2023-04-27T16:37:36.823Z,15.09
2023-04-27T16:40:07.846Z,14.86
2023-04-27T16:42:36.166Z,14.83
2023-04-27T16:45:04.772Z,15.20
2023-04-27T16:47:33.106Z,15.22
2023-04-27T16:50:02.754Z,15.05
2023-04-27T16:52:31.170Z,14.73
2023-04-27T16:54:59.443Z,15.28
2023-04-27T16:57:27.724Z,14.79
2023-04-27T16:59:56.560Z,14.95
2023-04-27T17:02:25.814Z,15.46
2023-04-27T17:04:54.953Z,14.86
2023-04-27T17:07:25.693Z,14.31
2023-04-27T17:09:54.548Z,13.50
2023-04-27T17:12:22.802Z,13.67
2023-04-27T17:14:51.287Z,13.40
2023-04-27T17:17:19.670Z,13.69
2023-04-27T17:19:48.047Z,13.57
2023-04-27T17:22:16.769Z,13.51
2023-04-27T17:24:46.439Z,13.44
2023-04-27T17:27:14.745Z,13.43
2023-04-27T17:29:43.170Z,13.27
2023-04-27T17:32:11.575Z,13.18
2023-04-27T17:34:41.695Z,13.17
2023-04-27T17:37:11.328Z,13.24
2023-04-27T17:39:39.685Z,13.25
2023-04-27T17:42:12.498Z,13.58
2023-04-27T17:44:42.441Z,13.52
2023-04-27T17:47:11.100Z,13.21
2023-04-27T17:49:39.420Z,13.17
2023-04-27T17:52:07.704Z,12.72
2023-04-27T17:54:36.024Z,12.93
2023-04-27T17:57:04.386Z,13.00
2023-04-27T17:59:34.211Z,12.91
2023-04-27T18:02:03.141Z,12.97
2023-04-27T18:04:31.716Z,13.06
2023-04-27T18:07:00.158Z,12.97
2023-04-27T18:09:29.486Z,13.40
2023-04-27T18:11:59.342Z,13.46
2023-04-27T18:14:27.776Z,13.34
2023-04-27T18:16:57.477Z,12.37
2023-04-27T18:19:25.884Z,13.40
2023-04-27T18:21:54.180Z,13.32
2023-04-27T18:24:22.429Z,13.05
2023-04-27T18:26:50.741Z,12.93
2023-04-27T18:29:18.963Z,12.94
2023-04-27T18:31:47.755Z,13.08
2023-04-27T18:34:17.638Z,13.25
2023-04-27T18:36:50.933Z,13.21
2023-04-27T18:39:20.523Z,13.44
2023-04-27T18:41:48.759Z,13.41
2023-04-27T18:44:17.300Z,13.24
2023-04-27T18:46:46.336Z,13.42
2023-04-27T18:49:14.913Z,13.14
2023-04-27T18:51:44.717Z,13.09
2023-04-27T18:54:13.085Z,13.34
2023-04-27T18:56:41.394Z,12.99
2023-04-27T18:59:09.780Z,13.02
2023-04-27T19:01:38.265Z,13.16
2023-04-27T19:04:07.995Z,13.36
2023-04-27T19:06:36.470Z,13.52
2023-04-27T19:09:06.436Z,13.40
2023-04-27T19:11:34.791Z,13.13
2023-04-27T19:14:03.000Z,12.85
2023-04-27T19:16:31.294Z,13.02
2023-04-27T19:18:59.760Z,13.25
2023-04-27T19:21:28.060Z,13.31
2023-04-27T19:23:56.421Z,13.38
2023-04-27T19:26:29.036Z,12.97
2023-04-27T19:28:57.926Z,12.95
2023-04-27T19:31:26.449Z,12.87
2023-04-27T19:33:55.525Z,12.39
2023-04-27T19:36:24.748Z,11.97
2023-04-27T19:38:53.101Z,12.15
2023-04-27T19:41:22.137Z,12.54
2023-04-27T19:43:51.832Z,12.79
2023-04-27T19:46:20.331Z,12.71
2023-04-27T19:48:48.655Z,12.82
2023-04-27T19:51:16.899Z,12.61
2023-04-27T19:53:45.169Z,12.96
2023-04-27T19:56:13.602Z,12.82
2023-04-27T19:58:41.863Z,12.97
2023-04-27T20:01:13.050Z,12.93
2023-04-27T20:03:42.039Z,12.79
2023-04-27T20:06:11.367Z,12.93
2023-04-27T20:08:39.894Z,13.01
2023-04-27T20:11:08.179Z,12.69
2023-04-27T20:13:36.419Z,12.86
2023-04-27T20:16:06.711Z,12.54
2023-04-27T20:18:36.607Z,12.40
2023-04-27T20:21:05.120Z,12.52
2023-04-27T20:23:33.401Z,12.73
2023-04-27T20:26:01.779Z,12.72
2023-04-27T20:28:30.622Z,12.49
2023-04-27T20:30:58.985Z,12.55
2023-04-27T20:33:27.333Z,12.70
2023-04-27T20:36:03.593Z,12.43
2023-04-27T20:38:34.972Z,12.50
2023-04-27T20:41:03.916Z,12.20
2023-04-27T20:43:32.756Z,12.05
2023-04-27T20:46:01.101Z,12.27
2023-04-27T20:48:29.762Z,12.56
2023-04-27T20:50:59.909Z,12.63
2023-04-27T20:53:28.267Z,12.93
2023-04-27T20:55:57.046Z,12.90
2023-04-27T20:58:25.327Z,12.65
2023-04-27T21:00:53.808Z,12.45
2023-04-27T21:03:22.334Z,12.14
2023-04-27T21:05:50.715Z,11.89
2023-04-27T21:08:20.457Z,11.76
2023-04-27T21:10:48.791Z,11.58
2023-04-27T21:13:17.554Z,11.73
2023-04-27T21:15:45.950Z,11.80
2023-04-27T21:18:26.674Z,11.63
2023-04-27T21:20:58.283Z,12.00
2023-04-27T21:23:27.998Z,11.49
2023-04-27T21:25:56.333Z,11.43
2023-04-27T21:28:24.627Z,11.89
2023-04-27T21:30:52.956Z,12.12
2023-04-27T21:33:21.408Z,11.91
2023-04-27T21:35:49.725Z,11.96
2023-04-27T21:38:17.952Z,12.23
2023-04-27T21:40:48.236Z,11.99
2023-04-27T21:43:16.548Z,12.30
2023-04-27T21:45:44.921Z,12.24
2023-04-27T21:48:13.394Z,12.31
2023-04-27T21:50:41.565Z,12.24
2023-04-27T21:53:09.870Z,12.05
2023-04-27T21:55:38.243Z,12.28
2023-04-27T21:58:07.949Z,11.88
2023-04-27T22:00:36.531Z,11.38
2023-04-27T22:03:05.247Z,11.54
2023-04-27T22:05:33.678Z,11.36
2023-04-27T22:08:01.959Z,11.68
2023-04-27T22:10:30.263Z,11.92
2023-04-27T22:13:02.569Z,11.72
2023-04-27T22:15:38.356Z,12.27
2023-04-27T22:18:06.937Z,12.31
2023-04-27T22:20:35.290Z,12.11
2023-04-27T22:23:03.629Z,12.09
2023-04-27T22:25:32.661Z,11.77
2023-04-27T22:28:01.679Z,11.64
2023-04-27T22:30:30.102Z,11.99
2023-04-27T22:32:59.858Z,11.51
2023-04-27T22:35:28.262Z,11.71
2023-04-27T22:37:56.677Z,11.43
2023-04-27T22:40:25.044Z,11.26
2023-04-27T22:42:53.469Z,11.43
2023-04-27T22:45:39.291Z,11.25
2023-04-27T22:48:09.167Z,11.19
2023-04-27T22:50:37.550Z,11.21
2023-04-27T22:53:05.981Z,11.93
2023-04-27T22:55:34.370Z,12.09
2023-04-27T22:58:02.684Z,11.66
2023-04-27T23:00:31.085Z,12.15
2023-04-27T23:02:59.457Z,12.19
2023-04-27T23:05:29.398Z,11.87
2023-04-27T23:07:57.742Z,11.27
2023-04-27T23:10:26.882Z,11.46
2023-04-27T23:12:57.189Z,11.42
2023-04-27T23:15:25.477Z,10.84
2023-04-27T23:17:53.773Z,10.63
2023-04-27T23:20:28.024Z,11.04
2023-04-27T23:22:59.018Z,11.36
2023-04-27T23:25:27.339Z,11.03
2023-04-27T23:27:55.821Z,11.28
2023-04-27T23:30:24.353Z,10.32
2023-04-27T23:32:52.706Z,10.14
2023-04-27T23:35:21.283Z,10.02
2023-04-27T23:37:49.627Z,10.15
2023-04-27T23:40:19.491Z,10.29
2023-04-27T23:42:49.137Z,10.17
2023-04-27T23:45:19.324Z,10.19
2023-04-27T23:47:47.608Z,9.65
2023-04-27T23:50:16.889Z,9.08
2023-04-27T23:52:45.285Z,9.04
2023-04-27T23:55:13.591Z,9.22
2023-04-27T23:57:44.384Z,9.23
